sensor_id;sensor_type;location;lat;lon;timestamp;P1;P2;P0
55549;PMS7003;41397;49.972;18.944;2023-01-25T00:01:06;12;12;9
55549;PMS7003;41397;49.972;18.944;2023-01-25T00:04:08;12;8;6
55549;PMS7003;41397;49.972;18.944;2023-01-25T00:07:09;9;9;6
55549;PMS7003;41397;49.972;18.944;2023-01-25T00:10:13;12;12;9
55549;PMS7003;41397;49.972;18.944;2023-01-25T00:13:15;16;16;9
55549;PMS7003;41397;49.972;18.944;2023-01-25T00:16:16;12;12;10
55549;PMS7003;41397;49.972;18.944;2023-01-25T00:19:18;13;13;11
55549;PMS7003;41397;49.972;18.944;2023-01-25T00:22:21;12;12;9
55549;PMS7003;41397;49.972;18.944;2023-01-25T00:25:23;11;11;8
55549;PMS7003;41397;49.972;18.944;2023-01-25T00:28:24;6;6;4
55549;PMS7003;41397;49.972;18.944;2023-01-25T00:31:31;18;11;7
55549;PMS7003;41397;49.972;18.944;2023-01-25T00:34:44;7;7;6
55549;PMS7003;41397;49.972;18.944;2023-01-25T00:37:51;9;9;4
55549;PMS7003;41397;49.972;18.944;2023-01-25T00:40:53;3;3;2
55549;PMS7003;41397;49.972;18.944;2023-01-25T00:43:55;10;10;7
55549;PMS7003;41397;49.972;18.944;2023-01-25T00:46:57;10;10;7
55549;PMS7003;41397;49.972;18.944;2023-01-25T00:49:58;11;11;8
55549;PMS7003;41397;49.972;18.944;2023-01-25T00:52:59;2;2;1
55549;PMS7003;41397;49.972;18.944;2023-01-25T00:56:01;5;3;2
55549;PMS7003;41397;49.972;18.944;2023-01-25T00:59:02;15;15;9
55549;PMS7003;41397;49.972;18.944;2023-01-25T01:02:04;13;13;9
55549;PMS7003;41397;49.972;18.944;2023-01-25T01:05:06;11;11;9
55549;PMS7003;41397;49.972;18.944;2023-01-25T01:08:07;11;11;7
55549;PMS7003;41397;49.972;18.944;2023-01-25T01:11:09;9;9;6
55549;PMS7003;41397;49.972;18.944;2023-01-25T01:14:12;12;10;6
55549;PMS7003;41397;49.972;18.944;2023-01-25T01:17:14;10;9;8
55549;PMS7003;41397;49.972;18.944;2023-01-25T01:20:15;13;13;9
55549;PMS7003;41397;49.972;18.944;2023-01-25T01:23:17;13;13;10
55549;PMS7003;41397;49.972;18.944;2023-01-25T01:26:20;14;14;7
55549;PMS7003;41397;49.972;18.944;2023-01-25T01:29:22;6;6;5
55549;PMS7003;41397;49.972;18.944;2023-01-25T01:32:23;12;10;6
55549;PMS7003;41397;49.972;18.944;2023-01-25T01:35:24;8;8;6
55549;PMS7003;41397;49.972;18.944;2023-01-25T01:38:28;9;9;7
55549;PMS7003;41397;49.972;18.944;2023-01-25T01:41:30;13;13;10
55549;PMS7003;41397;49.972;18.944;2023-01-25T01:47:47;10;10;6
55549;PMS7003;41397;49.972;18.944;2023-01-25T01:50:49;10;10;6
55549;PMS7003;41397;49.972;18.944;2023-01-25T01:57:14;11;11;7
55549;PMS7003;41397;49.972;18.944;2023-01-25T02:00:24;16;16;11
55549;PMS7003;41397;49.972;18.944;2023-01-25T02:03:29;10;10;7
55549;PMS7003;41397;49.972;18.944;2023-01-25T02:06:38;5;5;5
55549;PMS7003;41397;49.972;18.944;2023-01-25T02:09:46;8;8;6
55549;PMS7003;41397;49.972;18.944;2023-01-25T02:12:50;10;9;6
55549;PMS7003;41397;49.972;18.944;2023-01-25T02:15:54;11;11;8
55549;PMS7003;41397;49.972;18.944;2023-01-25T02:18:57;11;11;6
55549;PMS7003;41397;49.972;18.944;2023-01-25T02:22:03;5;5;4
55549;PMS7003;41397;49.972;18.944;2023-01-25T02:25:15;5;4;3
55549;PMS7003;41397;49.972;18.944;2023-01-25T02:31:30;9;9;6
55549;PMS7003;41397;49.972;18.944;2023-01-25T02:34:32;4;4;3
55549;PMS7003;41397;49.972;18.944;2023-01-25T02:37:35;8;8;7
55549;PMS7003;41397;49.972;18.944;2023-01-25T02:43:49;4;4;3
55549;PMS7003;41397;49.972;18.944;2023-01-25T02:46:56;7;7;5
55549;PMS7003;41397;49.972;18.944;2023-01-25T02:49:57;9;9;6
55549;PMS7003;41397;49.972;18.944;2023-01-25T02:52:58;8;8;6
55549;PMS7003;41397;49.972;18.944;2023-01-25T02:56:00;3;3;2
55549;PMS7003;41397;49.972;18.944;2023-01-25T02:59:04;5;5;5
55549;PMS7003;41397;49.972;18.944;2023-01-25T03:02:05;4;4;2
55549;PMS7003;41397;49.972;18.944;2023-01-25T03:05:07;5;5;5
55549;PMS7003;41397;49.972;18.944;2023-01-25T03:08:09;4;4;3
55549;PMS7003;41397;49.972;18.944;2023-01-25T03:11:12;7;7;5
55549;PMS7003;41397;49.972;18.944;2023-01-25T03:14:13;6;6;6
55549;PMS7003;41397;49.972;18.944;2023-01-25T03:17:15;3;3;3
55549;PMS7003;41397;49.972;18.944;2023-01-25T03:20:16;6;6;3
55549;PMS7003;41397;49.972;18.944;2023-01-25T03:23:20;8;8;5
55549;PMS7003;41397;49.972;18.944;2023-01-25T03:26:22;8;8;6
55549;PMS7003;41397;49.972;18.944;2023-01-25T03:29:24;11;11;7
55549;PMS7003;41397;49.972;18.944;2023-01-25T03:32:26;10;10;5
55549;PMS7003;41397;49.972;18.944;2023-01-25T03:35:28;10;10;7
55549;PMS7003;41397;49.972;18.944;2023-01-25T03:38:30;8;8;5
55549;PMS7003;41397;49.972;18.944;2023-01-25T03:41:32;8;8;7
55549;PMS7003;41397;49.972;18.944;2023-01-25T03:44:33;10;10;6
55549;PMS7003;41397;49.972;18.944;2023-01-25T03:47:36;10;10;8
55549;PMS7003;41397;49.972;18.944;2023-01-25T03:50:37;8;6;5
55549;PMS7003;41397;49.972;18.944;2023-01-25T03:53:39;12;11;6
55549;PMS7003;41397;49.972;18.944;2023-01-25T03:56:40;14;14;7
55549;PMS7003;41397;49.972;18.944;2023-01-25T03:59:44;7;7;3
55549;PMS7003;41397;49.972;18.944;2023-01-25T04:02:45;13;13;8
55549;PMS7003;41397;49.972;18.944;2023-01-25T04:05:47;8;8;6
55549;PMS7003;41397;49.972;18.944;2023-01-25T04:08:49;8;8;5
55549;PMS7003;41397;49.972;18.944;2023-01-25T04:11:52;5;5;4
55549;PMS7003;41397;49.972;18.944;2023-01-25T04:14:53;3;3;3
55549;PMS7003;41397;49.972;18.944;2023-01-25T04:17:55;5;5;4
55549;PMS7003;41397;49.972;18.944;2023-01-25T04:20:56;3;3;2
55549;PMS7003;41397;49.972;18.944;2023-01-25T04:24:00;10;10;7
55549;PMS7003;41397;49.972;18.944;2023-01-25T04:27:01;9;6;3
55549;PMS7003;41397;49.972;18.944;2023-01-25T04:30:03;7;7;5
55549;PMS7003;41397;49.972;18.944;2023-01-25T04:33:06;5;5;4
55549;PMS7003;41397;49.972;18.944;2023-01-25T04:36:08;9;9;5
55549;PMS7003;41397;49.972;18.944;2023-01-25T04:39:09;5;5;5
55549;PMS7003;41397;49.972;18.944;2023-01-25T04:42:11;12;12;9
55549;PMS7003;41397;49.972;18.944;2023-01-25T04:45:12;8;8;5
55549;PMS7003;41397;49.972;18.944;2023-01-25T04:48:16;8;8;6
55549;PMS7003;41397;49.972;18.944;2023-01-25T04:51:18;9;9;6
55549;PMS7003;41397;49.972;18.944;2023-01-25T04:54:19;20;20;11
55549;PMS7003;41397;49.972;18.944;2023-01-25T04:57:23;11;11;8
55549;PMS7003;41397;49.972;18.944;2023-01-25T05:00:25;9;9;5
55549;PMS7003;41397;49.972;18.944;2023-01-25T05:03:28;7;7;5
55549;PMS7003;41397;49.972;18.944;2023-01-25T05:06:30;9;9;7
55549;PMS7003;41397;49.972;18.944;2023-01-25T05:09:31;7;7;6
55549;PMS7003;41397;49.972;18.944;2023-01-25T05:12:33;10;10;6
55549;PMS7003;41397;49.972;18.944;2023-01-25T05:15:34;9;9;6
55549;PMS7003;41397;49.972;18.944;2023-01-25T05:18:35;8;8;5
55549;PMS7003;41397;49.972;18.944;2023-01-25T05:21:37;9;9;6
55549;PMS7003;41397;49.972;18.944;2023-01-25T05:24:50;8;8;5
55549;PMS7003;41397;49.972;18.944;2023-01-25T05:27:52;10;10;8
55549;PMS7003;41397;49.972;18.944;2023-01-25T05:30:53;11;11;9
55549;PMS7003;41397;49.972;18.944;2023-01-25T05:33:54;7;7;4
55549;PMS7003;41397;49.972;18.944;2023-01-25T05:36:56;5;5;5
55549;PMS7003;41397;49.972;18.944;2023-01-25T05:39:57;7;7;5
55549;PMS7003;41397;49.972;18.944;2023-01-25T05:42:58;12;12;7
55549;PMS7003;41397;49.972;18.944;2023-01-25T05:46:00;15;15;9
55549;PMS7003;41397;49.972;18.944;2023-01-25T05:49:02;11;11;8
55549;PMS7003;41397;49.972;18.944;2023-01-25T05:52:03;19;18;10
55549;PMS7003;41397;49.972;18.944;2023-01-25T05:55:05;16;16;10
55549;PMS7003;41397;49.972;18.944;2023-01-25T05:58:07;15;15;10
55549;PMS7003;41397;49.972;18.944;2023-01-25T06:01:08;13;13;11
55549;PMS7003;41397;49.972;18.944;2023-01-25T06:07:17;12;12;9
55549;PMS7003;41397;49.972;18.944;2023-01-25T06:10:18;15;15;8
55549;PMS7003;41397;49.972;18.944;2023-01-25T06:13:20;14;14;10
55549;PMS7003;41397;49.972;18.944;2023-01-25T06:16:22;16;16;9
55549;PMS7003;41397;49.972;18.944;2023-01-25T06:19:23;15;11;9
55549;PMS7003;41397;49.972;18.944;2023-01-25T06:22:25;11;11;7
55549;PMS7003;41397;49.972;18.944;2023-01-25T06:25:26;11;11;7
55549;PMS7003;41397;49.972;18.944;2023-01-25T06:28:31;16;16;12
55549;PMS7003;41397;49.972;18.944;2023-01-25T06:31:33;14;14;8
55549;PMS7003;41397;49.972;18.944;2023-01-25T06:34:35;11;9;6
55549;PMS7003;41397;49.972;18.944;2023-01-25T06:37:36;15;15;11
55549;PMS7003;41397;49.972;18.944;2023-01-25T06:40:38;15;15;11
55549;PMS7003;41397;49.972;18.944;2023-01-25T06:43:39;13;13;9
55549;PMS7003;41397;49.972;18.944;2023-01-25T06:46:40;12;12;7
55549;PMS7003;41397;49.972;18.944;2023-01-25T06:49:42;18;18;12
55549;PMS7003;41397;49.972;18.944;2023-01-25T06:52:49;13;13;9
55549;PMS7003;41397;49.972;18.944;2023-01-25T06:55:59;20;19;12
55549;PMS7003;41397;49.972;18.944;2023-01-25T06:59:02;18;18;13
55549;PMS7003;41397;49.972;18.944;2023-01-25T07:02:03;17;17;13
55549;PMS7003;41397;49.972;18.944;2023-01-25T07:05:07;20;19;14
55549;PMS7003;41397;49.972;18.944;2023-01-25T07:08:09;17;16;13
55549;PMS7003;41397;49.972;18.944;2023-01-25T07:11:11;19;18;13
55549;PMS7003;41397;49.972;18.944;2023-01-25T07:14:13;17;15;9
55549;PMS7003;41397;49.972;18.944;2023-01-25T07:17:15;19;19;14
55549;PMS7003;41397;49.972;18.944;2023-01-25T07:20:17;21;19;13
55549;PMS7003;41397;49.972;18.944;2023-01-25T07:23:18;15;15;9
55549;PMS7003;41397;49.972;18.944;2023-01-25T07:26:21;14;14;10
55549;PMS7003;41397;49.972;18.944;2023-01-25T07:29:24;11;11;6
55549;PMS7003;41397;49.972;18.944;2023-01-25T07:32:25;16;16;10
55549;PMS7003;41397;49.972;18.944;2023-01-25T07:35:28;16;16;12
55549;PMS7003;41397;49.972;18.944;2023-01-25T07:38:32;14;13;8
55549;PMS7003;41397;49.972;18.944;2023-01-25T07:41:34;9;9;7
55549;PMS7003;41397;49.972;18.944;2023-01-25T07:44:36;13;13;10
55549;PMS7003;41397;49.972;18.944;2023-01-25T07:47:37;13;13;9
55549;PMS7003;41397;49.972;18.944;2023-01-25T07:50:38;16;16;11
55549;PMS7003;41397;49.972;18.944;2023-01-25T07:53:41;17;17;12
55549;PMS7003;41397;49.972;18.944;2023-01-25T07:56:43;19;19;11
55549;PMS7003;41397;49.972;18.944;2023-01-25T07:59:45;17;17;11
55549;PMS7003;41397;49.972;18.944;2023-01-25T08:02:49;27;17;10
55549;PMS7003;41397;49.972;18.944;2023-01-25T08:05:51;25;20;13
55549;PMS7003;41397;49.972;18.944;2023-01-25T08:08:54;29;24;12
55549;PMS7003;41397;49.972;18.944;2023-01-25T08:11:57;25;23;11
55549;PMS7003;41397;49.972;18.944;2023-01-25T08:14:59;23;21;11
55549;PMS7003;41397;49.972;18.944;2023-01-25T08:18:00;25;23;12
55549;PMS7003;41397;49.972;18.944;2023-01-25T08:21:02;27;23;16
55549;PMS7003;41397;49.972;18.944;2023-01-25T08:24:04;10;10;8
55549;PMS7003;41397;49.972;18.944;2023-01-25T08:27:07;21;20;15
55549;PMS7003;41397;49.972;18.944;2023-01-25T08:30:10;19;16;9
55549;PMS7003;41397;49.972;18.944;2023-01-25T08:33:12;15;15;10
55549;PMS7003;41397;49.972;18.944;2023-01-25T08:36:14;23;22;12
55549;PMS7003;41397;49.972;18.944;2023-01-25T08:39:17;23;22;11
55549;PMS7003;41397;49.972;18.944;2023-01-25T08:42:19;16;15;11
55549;PMS7003;41397;49.972;18.944;2023-01-25T08:45:20;17;17;11
55549;PMS7003;41397;49.972;18.944;2023-01-25T08:48:22;35;28;16
55549;PMS7003;41397;49.972;18.944;2023-01-25T08:51:23;28;25;16
55549;PMS7003;41397;49.972;18.944;2023-01-25T08:54:25;28;24;16
55549;PMS7003;41397;49.972;18.944;2023-01-25T08:57:27;15;15;12
55549;PMS7003;41397;49.972;18.944;2023-01-25T09:00:28;20;16;11
55549;PMS7003;41397;49.972;18.944;2023-01-25T09:03:30;19;19;13
55549;PMS7003;41397;49.972;18.944;2023-01-25T09:06:31;23;22;13
55549;PMS7003;41397;49.972;18.944;2023-01-25T09:09:33;18;18;14
55549;PMS7003;41397;49.972;18.944;2023-01-25T09:12:34;18;18;11
55549;PMS7003;41397;49.972;18.944;2023-01-25T09:15:36;21;19;13
55549;PMS7003;41397;49.972;18.944;2023-01-25T09:18:38;22;21;13
55549;PMS7003;41397;49.972;18.944;2023-01-25T09:21:41;22;21;15
55549;PMS7003;41397;49.972;18.944;2023-01-25T09:24:43;18;18;11
55549;PMS7003;41397;49.972;18.944;2023-01-25T09:27:47;19;19;15
55549;PMS7003;41397;49.972;18.944;2023-01-25T09:34:03;23;22;15
55549;PMS7003;41397;49.972;18.944;2023-01-25T09:37:04;26;22;12
55549;PMS7003;41397;49.972;18.944;2023-01-25T09:40:09;18;18;13
55549;PMS7003;41397;49.972;18.944;2023-01-25T09:56:12;11;8;1
55549;PMS7003;41397;49.972;18.944;2023-01-25T09:59:26;23;22;16
55549;PMS7003;41397;49.972;18.944;2023-01-25T10:05:45;18;18;12
55549;PMS7003;41397;49.972;18.944;2023-01-25T10:12:11;16;16;14
55549;PMS7003;41397;49.972;18.944;2023-01-25T10:15:19;13;13;8
55549;PMS7003;41397;49.972;18.944;2023-01-25T10:21:37;14;13;8
55549;PMS7003;41397;49.972;18.944;2023-01-25T10:24:45;17;17;11
55549;PMS7003;41397;49.972;18.944;2023-01-25T10:34:22;18;18;12
55549;PMS7003;41397;49.972;18.944;2023-01-25T10:37:30;13;13;9
55549;PMS7003;41397;49.972;18.944;2023-01-25T10:40:38;11;11;9
55549;PMS7003;41397;49.972;18.944;2023-01-25T10:43:46;8;8;6
55549;PMS7003;41397;49.972;18.944;2023-01-25T10:46:57;12;12;9
55549;PMS7003;41397;49.972;18.944;2023-01-25T10:50:07;9;9;7
55549;PMS7003;41397;49.972;18.944;2023-01-25T10:56:23;13;13;8
55549;PMS7003;41397;49.972;18.944;2023-01-25T10:59:26;12;10;7
55549;PMS7003;41397;49.972;18.944;2023-01-25T11:05:44;7;7;5
55549;PMS7003;41397;49.972;18.944;2023-01-25T11:08:54;6;6;3
55549;PMS7003;41397;49.972;18.944;2023-01-25T11:18:28;9;9;8
55549;PMS7003;41397;49.972;18.944;2023-01-25T11:21:35;11;11;8
55549;PMS7003;41397;49.972;18.944;2023-01-25T11:24:36;7;7;6
55549;PMS7003;41397;49.972;18.944;2023-01-25T11:27:37;5;5;5
55549;PMS7003;41397;49.972;18.944;2023-01-25T11:30:39;4;4;4
55549;PMS7003;41397;49.972;18.944;2023-01-25T11:33:43;8;8;6
55549;PMS7003;41397;49.972;18.944;2023-01-25T11:43:19;6;6;5
55549;PMS7003;41397;49.972;18.944;2023-01-25T11:46:36;5;5;3
55549;PMS7003;41397;49.972;18.944;2023-01-25T12:16:07;5;5;2
55549;PMS7003;41397;49.972;18.944;2023-01-25T12:22:16;6;6;4
55549;PMS7003;41397;49.972;18.944;2023-01-25T12:28:41;4;4;4
55549;PMS7003;41397;49.972;18.944;2023-01-25T12:35:09;4;4;1
55549;PMS7003;41397;49.972;18.944;2023-01-25T12:38:16;6;6;6
55549;PMS7003;41397;49.972;18.944;2023-01-25T12:41:43;8;8;6
55549;PMS7003;41397;49.972;18.944;2023-01-25T12:44:41;5;5;4
55549;PMS7003;41397;49.972;18.944;2023-01-25T12:51:01;5;5;5
55549;PMS7003;41397;49.972;18.944;2023-01-25T12:54:11;7;7;6
55549;PMS7003;41397;49.972;18.944;2023-01-25T12:57:25;8;8;7
55549;PMS7003;41397;49.972;18.944;2023-01-25T13:07:02;10;10;7
55549;PMS7003;41397;49.972;18.944;2023-01-25T13:13:27;9;9;6
55549;PMS7003;41397;49.972;18.944;2023-01-25T13:16:34;8;8;6
55549;PMS7003;41397;49.972;18.944;2023-01-25T13:19:41;9;9;8
55549;PMS7003;41397;49.972;18.944;2023-01-25T13:35:39;7;7;5
55549;PMS7003;41397;49.972;18.944;2023-01-25T13:38:42;9;9;7
55549;PMS7003;41397;49.972;18.944;2023-01-25T13:48:14;9;9;8
55549;PMS7003;41397;49.972;18.944;2023-01-25T13:51:22;10;10;6
55549;PMS7003;41397;49.972;18.944;2023-01-25T13:54:28;14;14;8
55549;PMS7003;41397;49.972;18.944;2023-01-25T13:57:30;18;18;10
55549;PMS7003;41397;49.972;18.944;2023-01-25T14:00:32;16;16;11
55549;PMS7003;41397;49.972;18.944;2023-01-25T14:03:35;11;11;9
55549;PMS7003;41397;49.972;18.944;2023-01-25T14:06:42;8;8;6
55549;PMS7003;41397;49.972;18.944;2023-01-25T14:09:45;11;11;8
55549;PMS7003;41397;49.972;18.944;2023-01-25T14:12:48;10;10;7
55549;PMS7003;41397;49.972;18.944;2023-01-25T14:15:55;9;9;6
55549;PMS7003;41397;49.972;18.944;2023-01-25T14:22:21;10;10;8
55549;PMS7003;41397;49.972;18.944;2023-01-25T14:25:25;11;11;8
55549;PMS7003;41397;49.972;18.944;2023-01-25T14:28:27;15;15;10
55549;PMS7003;41397;49.972;18.944;2023-01-25T14:31:31;11;11;9
55549;PMS7003;41397;49.972;18.944;2023-01-25T14:34:35;12;12;8
55549;PMS7003;41397;49.972;18.944;2023-01-25T14:37:40;12;12;8
55549;PMS7003;41397;49.972;18.944;2023-01-25T14:40:44;8;8;6
55549;PMS7003;41397;49.972;18.944;2023-01-25T14:43:52;23;22;14
55549;PMS7003;41397;49.972;18.944;2023-01-25T14:53:24;9;9;6
55549;PMS7003;41397;49.972;18.944;2023-01-25T14:56:29;11;11;8
55549;PMS7003;41397;49.972;18.944;2023-01-25T14:59:40;11;11;7
55549;PMS7003;41397;49.972;18.944;2023-01-25T15:02:54;8;8;6
55549;PMS7003;41397;49.972;18.944;2023-01-25T15:06:02;11;11;9
55549;PMS7003;41397;49.972;18.944;2023-01-25T15:09:28;9;9;7
55549;PMS7003;41397;49.972;18.944;2023-01-25T15:15:34;18;18;8
55549;PMS7003;41397;49.972;18.944;2023-01-25T15:21:50;20;16;12
55549;PMS7003;41397;49.972;18.944;2023-01-25T15:24:54;10;10;8
55549;PMS7003;41397;49.972;18.944;2023-01-25T15:27:57;10;10;6
55549;PMS7003;41397;49.972;18.944;2023-01-25T15:31:02;10;9;7
55549;PMS7003;41397;49.972;18.944;2023-01-25T15:34:04;15;15;11
55549;PMS7003;41397;49.972;18.944;2023-01-25T15:37:07;16;16;12
55549;PMS7003;41397;49.972;18.944;2023-01-25T15:40:12;20;16;11
55549;PMS7003;41397;49.972;18.944;2023-01-25T15:43:14;17;17;11
55549;PMS7003;41397;49.972;18.944;2023-01-25T15:46:21;17;17;14
55549;PMS7003;41397;49.972;18.944;2023-01-25T15:49:26;16;16;13
55549;PMS7003;41397;49.972;18.944;2023-01-25T15:52:31;21;21;13
55549;PMS7003;41397;49.972;18.944;2023-01-25T15:55:33;18;18;12
55549;PMS7003;41397;49.972;18.944;2023-01-25T15:58:35;15;15;9
55549;PMS7003;41397;49.972;18.944;2023-01-25T16:01:39;31;22;16
55549;PMS7003;41397;49.972;18.944;2023-01-25T16:04:40;11;11;9
55549;PMS7003;41397;49.972;18.944;2023-01-25T16:07:42;11;11;8
55549;PMS7003;41397;49.972;18.944;2023-01-25T16:10:45;15;15;11
55549;PMS7003;41397;49.972;18.944;2023-01-25T16:13:47;20;19;13
55549;PMS7003;41397;49.972;18.944;2023-01-25T16:16:49;22;21;11
55549;PMS7003;41397;49.972;18.944;2023-01-25T16:19:52;11;11;9
55549;PMS7003;41397;49.972;18.944;2023-01-25T16:22:54;19;16;12
55549;PMS7003;41397;49.972;18.944;2023-01-25T16:25:55;16;15;11
55549;PMS7003;41397;49.972;18.944;2023-01-25T16:28:57;12;12;9
55549;PMS7003;41397;49.972;18.944;2023-01-25T16:31:59;17;17;12
55549;PMS7003;41397;49.972;18.944;2023-01-25T16:35:00;13;13;10
55549;PMS7003;41397;49.972;18.944;2023-01-25T16:38:02;16;16;10
55549;PMS7003;41397;49.972;18.944;2023-01-25T16:41:03;16;16;10
55549;PMS7003;41397;49.972;18.944;2023-01-25T16:44:06;17;17;14
55549;PMS7003;41397;49.972;18.944;2023-01-25T16:47:08;16;15;12
55549;PMS7003;41397;49.972;18.944;2023-01-25T16:50:21;15;15;11
55549;PMS7003;41397;49.972;18.944;2023-01-25T16:53:23;19;19;12
55549;PMS7003;41397;49.972;18.944;2023-01-25T16:56:28;18;18;13
55549;PMS7003;41397;49.972;18.944;2023-01-25T16:59:31;22;20;14
55549;PMS7003;41397;49.972;18.944;2023-01-25T17:02:32;17;15;12
55549;PMS7003;41397;49.972;18.944;2023-01-25T17:05:33;18;18;13
55549;PMS7003;41397;49.972;18.944;2023-01-25T17:08:38;21;20;12
55549;PMS7003;41397;49.972;18.944;2023-01-25T17:11:40;16;16;12
55549;PMS7003;41397;49.972;18.944;2023-01-25T17:14:41;24;23;15
55549;PMS7003;41397;49.972;18.944;2023-01-25T17:17:43;15;15;11
55549;PMS7003;41397;49.972;18.944;2023-01-25T17:20:44;19;19;13
55549;PMS7003;41397;49.972;18.944;2023-01-25T17:23:46;13;12;9
55549;PMS7003;41397;49.972;18.944;2023-01-25T17:26:48;20;18;14
55549;PMS7003;41397;49.972;18.944;2023-01-25T17:29:50;13;13;9
55549;PMS7003;41397;49.972;18.944;2023-01-25T17:32:54;20;20;14
55549;PMS7003;41397;49.972;18.944;2023-01-25T17:35:56;16;16;12
55549;PMS7003;41397;49.972;18.944;2023-01-25T17:39:02;14;14;11
55549;PMS7003;41397;49.972;18.944;2023-01-25T17:42:05;23;19;15
55549;PMS7003;41397;49.972;18.944;2023-01-25T17:45:10;22;21;15
55549;PMS7003;41397;49.972;18.944;2023-01-25T17:48:11;26;24;15
55549;PMS7003;41397;49.972;18.944;2023-01-25T17:51:13;24;22;15
55549;PMS7003;41397;49.972;18.944;2023-01-25T17:54:15;32;27;18
55549;PMS7003;41397;49.972;18.944;2023-01-25T17:57:16;22;22;16
55549;PMS7003;41397;49.972;18.944;2023-01-25T18:00:27;21;21;15
55549;PMS7003;41397;49.972;18.944;2023-01-25T18:03:32;2;2;0
55549;PMS7003;41397;49.972;18.944;2023-01-25T18:06:39;8;8;5
55549;PMS7003;41397;49.972;18.944;2023-01-25T18:09:43;11;11;6
55549;PMS7003;41397;49.972;18.944;2023-01-25T18:12:47;9;9;5
55549;PMS7003;41397;49.972;18.944;2023-01-25T18:15:54;9;9;6
55549;PMS7003;41397;49.972;18.944;2023-01-25T18:18:56;12;12;8
55549;PMS7003;41397;49.972;18.944;2023-01-25T18:21:59;11;11;8
55549;PMS7003;41397;49.972;18.944;2023-01-25T18:25:02;9;9;8
55549;PMS7003;41397;49.972;18.944;2023-01-25T18:28:05;17;16;10
55549;PMS7003;41397;49.972;18.944;2023-01-25T18:31:06;14;13;7
55549;PMS7003;41397;49.972;18.944;2023-01-25T18:34:08;14;14;9
55549;PMS7003;41397;49.972;18.944;2023-01-25T18:37:09;5;5;3
55549;PMS7003;41397;49.972;18.944;2023-01-25T18:40:20;12;12;10
55549;PMS7003;41397;49.972;18.944;2023-01-25T18:43:22;13;13;9
55549;PMS7003;41397;49.972;18.944;2023-01-25T18:46:24;23;22;12
55549;PMS7003;41397;49.972;18.944;2023-01-25T18:49:25;21;20;11
55549;PMS7003;41397;49.972;18.944;2023-01-25T18:52:26;22;21;13
55549;PMS7003;41397;49.972;18.944;2023-01-25T18:55:28;23;23;15
55549;PMS7003;41397;49.972;18.944;2023-01-25T18:58:30;14;14;10
55549;PMS7003;41397;49.972;18.944;2023-01-25T19:01:32;19;19;13
55549;PMS7003;41397;49.972;18.944;2023-01-25T19:04:34;14;14;10
55549;PMS7003;41397;49.972;18.944;2023-01-25T19:07:35;25;22;13
55549;PMS7003;41397;49.972;18.944;2023-01-25T19:10:37;10;10;2
55549;PMS7003;41397;49.972;18.944;2023-01-25T19:13:38;25;24;13
55549;PMS7003;41397;49.972;18.944;2023-01-25T19:16:41;31;28;19
55549;PMS7003;41397;49.972;18.944;2023-01-25T19:19:42;16;16;9
55549;PMS7003;41397;49.972;18.944;2023-01-25T19:22:44;22;17;10
55549;PMS7003;41397;49.972;18.944;2023-01-25T19:28:55;18;18;12
55549;PMS7003;41397;49.972;18.944;2023-01-25T19:32:02;15;15;12
55549;PMS7003;41397;49.972;18.944;2023-01-25T19:35:07;18;18;13
55549;PMS7003;41397;49.972;18.944;2023-01-25T19:38:09;19;16;10
55549;PMS7003;41397;49.972;18.944;2023-01-25T19:41:12;22;21;15
55549;PMS7003;41397;49.972;18.944;2023-01-25T19:44:18;18;17;11
55549;PMS7003;41397;49.972;18.944;2023-01-25T19:47:20;17;14;10
55549;PMS7003;41397;49.972;18.944;2023-01-25T19:50:21;29;27;15
55549;PMS7003;41397;49.972;18.944;2023-01-25T19:53:23;25;21;14
55549;PMS7003;41397;49.972;18.944;2023-01-25T19:56:26;15;15;11
55549;PMS7003;41397;49.972;18.944;2023-01-25T19:59:29;21;20;13
55549;PMS7003;41397;49.972;18.944;2023-01-25T20:02:31;21;20;13
55549;PMS7003;41397;49.972;18.944;2023-01-25T20:05:32;25;20;10
55549;PMS7003;41397;49.972;18.944;2023-01-25T20:08:35;23;22;15
55549;PMS7003;41397;49.972;18.944;2023-01-25T20:11:47;22;17;12
55549;PMS7003;41397;49.972;18.944;2023-01-25T20:14:49;21;21;12
55549;PMS7003;41397;49.972;18.944;2023-01-25T20:17:51;23;22;15
55549;PMS7003;41397;49.972;18.944;2023-01-25T20:20:56;26;22;14
55549;PMS7003;41397;49.972;18.944;2023-01-25T20:24:03;20;20;12
55549;PMS7003;41397;49.972;18.944;2023-01-25T20:27:06;20;20;14
55549;PMS7003;41397;49.972;18.944;2023-01-25T20:30:07;18;18;13
55549;PMS7003;41397;49.972;18.944;2023-01-25T20:33:10;22;22;12
55549;PMS7003;41397;49.972;18.944;2023-01-25T20:36:15;21;21;15
55549;PMS7003;41397;49.972;18.944;2023-01-25T20:39:21;26;22;14
55549;PMS7003;41397;49.972;18.944;2023-01-25T20:42:23;21;19;12
55549;PMS7003;41397;49.972;18.944;2023-01-25T20:45:24;21;21;14
55549;PMS7003;41397;49.972;18.944;2023-01-25T20:48:29;18;18;13
55549;PMS7003;41397;49.972;18.944;2023-01-25T20:51:36;27;25;15
55549;PMS7003;41397;49.972;18.944;2023-01-25T20:54:39;26;24;16
55549;PMS7003;41397;49.972;18.944;2023-01-25T20:57:43;23;22;14
55549;PMS7003;41397;49.972;18.944;2023-01-25T21:00:45;20;20;13
55549;PMS7003;41397;49.972;18.944;2023-01-25T21:03:46;19;19;12
55549;PMS7003;41397;49.972;18.944;2023-01-25T21:06:49;22;22;12
55549;PMS7003;41397;49.972;18.944;2023-01-25T21:09:50;26;25;16
55549;PMS7003;41397;49.972;18.944;2023-01-25T21:12:52;26;25;17
55549;PMS7003;41397;49.972;18.944;2023-01-25T21:19:07;26;23;13
55549;PMS7003;41397;49.972;18.944;2023-01-25T21:22:08;26;24;17
55549;PMS7003;41397;49.972;18.944;2023-01-25T21:25:10;25;24;14
55549;PMS7003;41397;49.972;18.944;2023-01-25T21:28:12;26;23;17
55549;PMS7003;41397;49.972;18.944;2023-01-25T21:31:18;30;26;19
55549;PMS7003;41397;49.972;18.944;2023-01-25T21:34:21;25;22;14
55549;PMS7003;41397;49.972;18.944;2023-01-25T21:37:23;24;23;13
55549;PMS7003;41397;49.972;18.944;2023-01-25T21:40:24;21;21;15
55549;PMS7003;41397;49.972;18.944;2023-01-25T21:43:26;26;23;15
55549;PMS7003;41397;49.972;18.944;2023-01-25T21:46:28;29;26;14
55549;PMS7003;41397;49.972;18.944;2023-01-25T21:49:29;11;11;0
55549;PMS7003;41397;49.972;18.944;2023-01-25T21:52:43;28;25;17
55549;PMS7003;41397;49.972;18.944;2023-01-25T21:55:44;27;25;14
55549;PMS7003;41397;49.972;18.944;2023-01-25T21:58:49;17;17;14
55549;PMS7003;41397;49.972;18.944;2023-01-25T22:01:51;24;22;14
55549;PMS7003;41397;49.972;18.944;2023-01-25T22:04:54;23;22;12
55549;PMS7003;41397;49.972;18.944;2023-01-25T22:07:57;25;24;14
55549;PMS7003;41397;49.972;18.944;2023-01-25T22:11:04;24;20;13
55549;PMS7003;41397;49.972;18.944;2023-01-25T22:14:16;27;26;16
55549;PMS7003;41397;49.972;18.944;2023-01-25T22:17:19;27;25;16